createdAt,value
2018-05-01T00:00:17.747Z,2.97
2018-05-01T00:02:45.233Z,3.10
2018-05-01T00:05:12.762Z,2.63
2018-05-01T00:07:40.312Z,2.90
2018-05-01T00:10:07.840Z,3.63
2018-05-01T00:12:35.344Z,3.20
2018-05-01T00:15:02.884Z,3.63
2018-05-01T00:17:30.434Z,3.53
2018-05-01T00:19:58.839Z,4.33
2018-05-01T00:22:26.330Z,4.00
2018-05-01T00:24:53.923Z,3.60
2018-05-01T00:27:22.200Z,3.67
2018-05-01T00:29:50.461Z,2.63
2018-05-01T00:32:18.749Z,3.63
2018-05-01T00:34:47.131Z,3.43
2018-05-01T00:37:14.627Z,3.20
2018-05-01T00:39:42.121Z,3.50
2018-05-01T00:42:09.703Z,5.87
2018-05-01T00:44:37.984Z,3.30
2018-05-01T00:47:05.466Z,3.90
2018-05-01T00:49:32.992Z,3.30
2018-05-01T00:52:00.475Z,3.93
2018-05-01T00:54:28.004Z,3.20
2018-05-01T00:56:55.494Z,4.00
2018-05-01T00:59:22.986Z,3.73
2018-05-01T01:01:50.571Z,3.57
2018-05-01T01:04:18.839Z,2.90
2018-05-01T01:06:47.106Z,3.40
2018-05-01T01:09:15.407Z,2.80
2018-05-01T01:11:42.956Z,3.43
2018-05-01T01:14:10.418Z,2.30
2018-05-01T01:16:37.928Z,3.83
2018-05-01T01:19:05.526Z,2.93
2018-05-01T01:21:33.781Z,3.33
2018-05-01T01:24:01.350Z,3.13
2018-05-01T01:26:29.622Z,3.03
2018-05-01T01:28:57.896Z,3.10
2018-05-01T01:31:26.172Z,3.70
2018-05-01T01:33:54.424Z,3.20
2018-05-01T01:36:21.432Z,3.40
2018-05-01T01:38:48.429Z,2.90
2018-05-01T01:41:16.218Z,3.80
2018-05-01T01:43:43.256Z,2.90
2018-05-01T01:46:10.305Z,3.10
2018-05-01T01:48:37.323Z,2.80
2018-05-01T01:51:04.381Z,2.97
2018-05-01T01:53:32.156Z,2.93
2018-05-01T01:55:59.211Z,3.30
2018-05-01T01:58:26.228Z,3.40
2018-05-01T02:00:54.035Z,2.23
2018-05-01T02:03:21.048Z,3.17
2018-05-01T02:05:48.818Z,3.40
2018-05-01T02:08:16.590Z,3.10
2018-05-01T02:10:43.721Z,3.37
2018-05-01T02:13:11.590Z,2.93
2018-05-01T02:15:39.418Z,3.33
2018-05-01T02:18:06.404Z,3.00
2018-05-01T02:20:33.436Z,4.27
2018-05-01T02:23:01.199Z,3.20
2018-05-01T02:25:28.978Z,3.07
2018-05-01T02:27:56.024Z,3.37
2018-05-01T02:30:23.082Z,2.70
2018-05-01T02:32:50.111Z,2.93
2018-05-01T02:35:18.048Z,3.17
2018-05-01T02:37:45.128Z,3.40
2018-05-01T02:40:12.156Z,4.20
2018-05-01T02:42:40.040Z,3.33
2018-05-01T02:45:07.038Z,3.10
2018-05-01T02:47:34.056Z,2.70
2018-05-01T02:50:01.068Z,4.03
2018-05-01T02:52:28.116Z,3.40
2018-05-01T02:54:55.163Z,3.10
2018-05-01T02:57:22.163Z,3.00
2018-05-01T02:59:49.192Z,3.70
2018-05-01T03:02:16.206Z,3.17
2018-05-01T03:04:43.252Z,4.50
2018-05-01T03:07:10.266Z,3.10
2018-05-01T03:09:38.144Z,2.80
2018-05-01T03:12:06.377Z,2.80
2018-05-01T03:14:33.384Z,3.03
2018-05-01T03:17:00.404Z,3.23
2018-05-01T03:19:28.168Z,3.77
2018-05-01T03:21:55.934Z,4.10
2018-05-01T03:24:23.702Z,3.40
2018-05-01T03:26:51.557Z,3.20
2018-05-01T03:29:19.433Z,3.30
2018-05-01T03:31:46.501Z,2.97
2018-05-01T03:34:13.516Z,2.90
2018-05-01T03:36:41.283Z,3.20
2018-05-01T03:39:09.144Z,3.23
2018-05-01T03:41:36.070Z,3.10
2018-05-01T03:44:03.856Z,2.80
2018-05-01T03:46:31.613Z,3.03
2018-05-01T03:48:59.402Z,2.87
2018-05-01T03:51:26.415Z,2.57
2018-05-01T03:53:54.184Z,3.07
2018-05-01T03:56:21.955Z,3.40
2018-05-01T03:58:48.950Z,2.80
2018-05-01T04:01:16.038Z,2.83
2018-05-01T04:03:43.906Z,4.57
2018-05-01T04:06:11.671Z,2.83
2018-05-01T04:08:38.671Z,2.77
2018-05-01T04:11:05.753Z,2.70
2018-05-01T04:13:33.519Z,2.47
2018-05-01T04:16:01.282Z,3.43
2018-05-01T04:18:29.037Z,2.90
2018-05-01T04:20:56.833Z,2.50
2018-05-01T04:23:23.859Z,2.80
2018-05-01T04:25:51.726Z,2.97
2018-05-01T04:28:18.757Z,3.00
2018-05-01T04:30:46.524Z,2.97
2018-05-01T04:33:14.389Z,2.67
2018-05-01T04:35:42.285Z,3.80
2018-05-01T04:38:09.281Z,4.03
2018-05-01T04:40:36.285Z,2.90
2018-05-01T04:43:03.404Z,3.33
2018-05-01T04:45:30.405Z,3.07
2018-05-01T04:47:57.500Z,2.90
2018-05-01T04:50:24.538Z,3.17
2018-05-01T04:52:52.298Z,3.37
2018-05-01T04:55:20.081Z,3.13
2018-05-01T04:57:47.076Z,2.90
2018-05-01T05:00:14.104Z,2.93
2018-05-01T05:02:41.198Z,3.33
2018-05-01T05:05:08.245Z,3.70
2018-05-01T05:07:36.104Z,2.80
2018-05-01T05:10:03.142Z,2.97
2018-05-01T05:12:30.937Z,3.13
2018-05-01T05:14:57.942Z,2.93
2018-05-01T05:17:24.947Z,3.33
2018-05-01T05:19:52.053Z,5.40
2018-05-01T05:22:20.490Z,2.90
2018-05-01T05:24:47.493Z,3.50
2018-05-01T05:27:14.523Z,3.30
2018-05-01T05:29:42.287Z,2.67
2018-05-01T05:32:09.277Z,3.30
2018-05-01T05:34:36.281Z,3.53
2018-05-01T05:37:03.305Z,3.40
2018-05-01T05:39:31.177Z,3.50
2018-05-01T05:41:58.935Z,3.77
2018-05-01T05:44:26.774Z,2.80
2018-05-01T05:46:53.899Z,3.47
2018-05-01T05:49:20.956Z,3.50
2018-05-01T05:51:47.976Z,3.00
2018-05-01T05:54:14.975Z,6.23
2018-05-01T05:56:42.866Z,3.63
2018-05-01T05:59:09.882Z,3.10
2018-05-01T06:01:36.886Z,3.23
2018-05-01T06:04:03.910Z,3.93
2018-05-01T06:06:30.901Z,3.77
2018-05-01T06:08:57.901Z,3.50
2018-05-01T06:11:24.993Z,3.80
2018-05-01T06:13:52.101Z,3.57
2018-05-01T06:16:19.117Z,3.53
2018-05-01T06:18:46.999Z,3.13
2018-05-01T06:21:14.009Z,3.40
2018-05-01T06:23:41.085Z,3.10
2018-05-01T06:26:08.086Z,3.73
2018-05-01T06:28:35.173Z,3.17
2018-05-01T06:31:02.256Z,3.27
2018-05-01T06:33:29.239Z,3.03
2018-05-01T06:35:56.305Z,3.20
2018-05-01T06:38:24.089Z,3.57
2018-05-01T06:40:51.108Z,2.83
2018-05-01T06:43:18.880Z,3.00
2018-05-01T06:45:45.899Z,2.47
2018-05-01T06:48:12.962Z,2.60
2018-05-01T06:50:40.771Z,2.20
2018-05-01T06:53:07.757Z,2.80
2018-05-01T06:55:34.768Z,3.43
2018-05-01T06:58:01.802Z,2.50
2018-05-01T07:00:28.820Z,2.67
2018-05-01T07:02:55.830Z,1.93
2018-05-01T07:05:22.843Z,3.63
2018-05-01T07:07:49.835Z,2.23
2018-05-01T07:10:17.675Z,2.40
2018-05-01T07:12:44.672Z,2.23
2018-05-01T07:15:11.687Z,2.33
2018-05-01T07:17:39.463Z,1.80
2018-05-01T07:20:06.516Z,1.70
2018-05-01T07:22:33.543Z,2.10
2018-05-01T07:25:01.308Z,2.30
2018-05-01T07:27:29.107Z,1.63
2018-05-01T07:29:56.118Z,1.93
2018-05-01T07:32:23.895Z,1.80
2018-05-01T07:34:50.911Z,2.10
2018-05-01T07:37:18.689Z,1.60
2018-05-01T07:39:46.454Z,1.57
2018-05-01T07:42:14.233Z,1.60
2018-05-01T07:44:41.286Z,1.70
2018-05-01T07:47:08.283Z,2.40
2018-05-01T07:49:35.309Z,3.37
2018-05-01T07:52:02.398Z,2.50
2018-05-01T07:54:30.188Z,1.40
2018-05-01T07:56:57.310Z,4.50
2018-05-01T07:59:25.108Z,2.23
2018-05-01T08:01:52.118Z,2.73
2018-05-01T08:04:19.883Z,1.40
2018-05-01T08:06:46.885Z,1.30
2018-05-01T08:09:13.977Z,1.20
2018-05-01T08:11:41.000Z,1.03
2018-05-01T08:14:08.081Z,2.03
2018-05-01T08:16:35.069Z,1.20
2018-05-01T08:19:02.173Z,1.27
2018-05-01T08:21:29.204Z,1.67
2018-05-01T08:23:56.270Z,1.10
2018-05-01T08:26:23.397Z,1.60
2018-05-01T08:28:51.295Z,1.30
2018-05-01T08:31:18.384Z,1.70
2018-05-01T08:33:45.476Z,1.90
2018-05-01T08:36:12.473Z,0.80
2018-05-01T08:38:39.538Z,1.13
2018-05-01T08:41:07.302Z,0.90
2018-05-01T08:43:35.166Z,1.27
2018-05-01T08:46:02.934Z,1.10
2018-05-01T08:48:30.794Z,1.20
2018-05-01T08:50:58.622Z,1.37
2018-05-01T08:53:25.647Z,0.80
2018-05-01T08:55:54.005Z,1.10
2018-05-01T08:58:21.036Z,1.10
2018-05-01T09:00:48.037Z,1.10
2018-05-01T09:03:15.133Z,1.10
2018-05-01T09:05:42.196Z,1.07
2018-05-01T09:08:09.185Z,1.60
2018-05-01T09:10:36.196Z,1.73
2018-05-01T09:13:03.186Z,1.20
2018-05-01T09:15:31.066Z,0.80
2018-05-01T09:17:59.046Z,1.43
2018-05-01T09:20:25.953Z,1.10
2018-05-01T09:22:52.952Z,1.00
2018-05-01T09:25:20.121Z,1.23
2018-05-01T09:27:47.114Z,0.93
2018-05-01T09:30:14.889Z,1.20
2018-05-01T09:32:41.927Z,1.07
2018-05-01T09:35:08.935Z,1.17
2018-05-01T09:37:35.964Z,1.10
2018-05-01T09:40:02.978Z,1.33
2018-05-01T09:42:29.970Z,1.20
2018-05-01T09:44:57.041Z,1.27
2018-05-01T09:47:24.929Z,1.63
2018-05-01T09:49:51.983Z,1.20
2018-05-01T09:52:19.471Z,1.17
2018-05-01T09:54:46.970Z,1.10
2018-05-01T09:57:15.237Z,2.17
2018-05-01T09:59:43.482Z,1.23
2018-05-01T10:02:10.978Z,1.53
2018-05-01T10:04:39.254Z,1.57
2018-05-01T10:07:07.522Z,1.83
2018-05-01T10:09:35.821Z,1.57
2018-05-01T10:12:03.331Z,2.03
2018-05-01T10:14:30.846Z,1.30
2018-05-01T10:16:58.331Z,1.20
2018-05-01T10:19:25.842Z,1.30
2018-05-01T10:21:53.368Z,1.30
2018-05-01T10:24:21.682Z,1.87
2018-05-01T10:26:49.445Z,2.60
2018-05-01T10:29:16.979Z,1.40
2018-05-01T10:31:44.537Z,3.43
2018-05-01T10:34:12.906Z,1.70
2018-05-01T10:36:41.293Z,1.50
2018-05-01T10:39:09.588Z,1.40
2018-05-01T10:41:37.135Z,1.80
2018-05-01T10:44:04.739Z,2.87
2018-05-01T10:46:32.198Z,1.90
2018-05-01T10:49:01.219Z,1.53
2018-05-01T10:51:29.482Z,1.70
2018-05-01T10:53:57.086Z,1.60
2018-05-01T10:56:24.589Z,1.80
2018-05-01T10:58:52.096Z,1.43
2018-05-01T11:01:19.638Z,1.53
2018-05-01T11:03:47.132Z,1.70
2018-05-01T11:06:14.668Z,2.33
2018-05-01T11:08:42.190Z,2.10
2018-05-01T11:11:09.792Z,2.33
2018-05-01T11:13:37.302Z,1.80
2018-05-01T11:16:05.549Z,2.20
2018-05-01T11:18:33.151Z,2.10
2018-05-01T11:21:00.729Z,1.63
2018-05-01T11:23:28.269Z,1.70
2018-05-01T11:25:55.890Z,3.53
2018-05-01T11:28:23.440Z,2.03
2018-05-01T11:30:51.042Z,1.67
2018-05-01T11:33:18.607Z,1.87
2018-05-01T11:35:46.102Z,1.93
2018-05-01T11:38:13.626Z,1.77
2018-05-01T11:40:41.211Z,1.63
2018-05-01T11:43:08.735Z,1.80
2018-05-01T11:45:36.237Z,2.17
2018-05-01T11:48:03.738Z,2.43
2018-05-01T11:50:32.016Z,2.43
2018-05-01T11:52:59.531Z,1.90
2018-05-01T11:55:27.038Z,1.80
2018-05-01T11:57:54.583Z,2.70
2018-05-01T12:00:22.848Z,1.83
2018-05-01T12:02:51.167Z,2.13
2018-05-01T12:05:18.722Z,1.93
2018-05-01T12:07:46.247Z,1.83
2018-05-01T12:10:17.669Z,1.93
2018-05-01T12:12:45.234Z,1.90
2018-05-01T12:15:13.535Z,1.97
2018-05-01T12:17:41.068Z,4.20
2018-05-01T12:20:09.326Z,2.20
2018-05-01T12:22:36.809Z,2.40
2018-05-01T12:25:05.086Z,2.00
2018-05-01T12:27:33.376Z,2.27
2018-05-01T12:30:29.941Z,3.53
2018-05-01T12:32:57.527Z,2.27
2018-05-01T12:35:25.078Z,2.30
2018-05-01T12:37:52.561Z,2.67
2018-05-01T12:40:20.814Z,2.97
2018-05-01T12:42:48.332Z,2.00
2018-05-01T12:45:15.826Z,3.70
2018-05-01T12:47:43.302Z,2.13
2018-05-01T12:50:11.584Z,1.83
2018-05-01T12:52:39.857Z,1.90
2018-05-01T12:55:08.115Z,2.40
2018-05-01T12:57:36.402Z,2.40
2018-05-01T13:00:04.689Z,3.80
2018-05-01T13:02:32.243Z,2.27
2018-05-01T13:04:59.792Z,3.40
2018-05-01T13:07:27.239Z,2.30
2018-05-01T13:09:55.494Z,2.50
2018-05-01T13:12:23.054Z,3.00
2018-05-01T13:14:50.510Z,2.43
2018-05-01T13:17:18.195Z,4.33
2018-05-01T13:19:45.712Z,2.70
2018-05-01T13:22:13.250Z,5.70
2018-05-01T13:24:40.764Z,2.80
2018-05-01T13:27:09.022Z,3.00
2018-05-01T13:29:36.597Z,3.10
2018-05-01T13:32:04.888Z,3.10
2018-05-01T13:34:32.399Z,3.37
2018-05-01T13:36:59.982Z,3.57
2018-05-01T13:39:28.254Z,3.30
2018-05-01T13:41:56.520Z,2.77
2018-05-01T13:44:24.793Z,2.10
2018-05-01T13:46:52.361Z,2.93
2018-05-01T13:49:19.879Z,3.40
2018-05-01T13:51:48.202Z,2.80
2018-05-01T13:54:16.489Z,4.00
2018-05-01T13:56:44.737Z,3.13
2018-05-01T13:59:13.008Z,3.33
2018-05-01T14:01:41.282Z,3.10
2018-05-01T14:04:08.781Z,3.40
2018-05-01T14:06:36.333Z,3.97
2018-05-01T14:09:03.843Z,3.50
2018-05-01T14:11:31.348Z,4.87
2018-05-01T14:13:58.896Z,3.27
2018-05-01T14:16:26.391Z,2.93
2018-05-01T14:18:53.886Z,2.87
2018-05-01T14:21:22.139Z,3.70
2018-05-01T14:23:49.741Z,3.03
2018-05-01T14:26:31.025Z,4.80
2018-05-01T14:28:58.666Z,4.73
2018-05-01T14:31:26.930Z,3.83
2018-05-01T14:33:55.319Z,3.60
2018-05-01T14:36:22.811Z,3.53
2018-05-01T14:38:50.329Z,3.13
2018-05-01T14:41:18.726Z,3.07
2018-05-01T14:43:46.209Z,3.10
2018-05-01T14:46:13.767Z,2.90
2018-05-01T14:48:41.397Z,3.07
2018-05-01T14:51:09.931Z,3.40
2018-05-01T14:53:37.497Z,2.70
2018-05-01T14:56:05.782Z,3.23
2018-05-01T14:58:34.655Z,2.77
2018-05-01T15:01:02.256Z,3.00
2018-05-01T15:03:29.804Z,3.30
2018-05-01T15:05:57.299Z,2.93
2018-05-01T15:08:24.813Z,3.30
2018-05-01T15:10:52.315Z,3.47
2018-05-01T15:13:19.834Z,2.90
2018-05-01T15:15:47.355Z,3.00
2018-05-01T15:18:14.852Z,3.40
2018-05-01T15:20:42.353Z,2.90
2018-05-01T15:23:09.866Z,3.10
2018-05-01T15:25:37.444Z,3.87
2018-05-01T15:28:04.899Z,3.63
2018-05-01T15:30:32.511Z,3.53
2018-05-01T15:32:59.978Z,2.93
2018-05-01T15:35:27.484Z,3.30
2018-05-01T15:37:54.982Z,3.57
2018-05-01T15:40:23.241Z,3.00
2018-05-01T15:42:50.739Z,3.40
2018-05-01T15:45:18.253Z,2.97
2018-05-01T15:47:46.523Z,3.17
2018-05-01T15:50:14.128Z,3.60
2018-05-01T15:52:41.613Z,2.90
2018-05-01T15:55:10.159Z,3.17
2018-05-01T15:57:37.665Z,3.20
2018-05-01T16:00:05.263Z,3.63
2018-05-01T16:02:32.789Z,3.37
2018-05-01T16:05:00.300Z,3.47
2018-05-01T16:07:27.794Z,3.30
2018-05-01T16:09:55.282Z,3.30
2018-05-01T16:12:23.551Z,3.10
2018-05-01T16:14:51.803Z,3.50
2018-05-01T16:17:19.298Z,2.83
2018-05-01T16:19:46.818Z,3.60
2018-05-01T16:22:14.316Z,3.00
2018-05-01T16:24:41.884Z,3.27
2018-05-01T16:27:09.419Z,3.03
2018-05-01T16:29:36.927Z,2.70
2018-05-01T16:32:04.450Z,2.90
2018-05-01T16:34:32.931Z,3.50
2018-05-01T16:37:00.471Z,3.07
2018-05-01T16:39:28.028Z,2.77
2018-05-01T16:41:55.707Z,2.83
2018-05-01T16:44:23.243Z,3.27
2018-05-01T16:46:50.790Z,2.83
2018-05-01T16:49:19.066Z,3.20
2018-05-01T16:51:47.330Z,2.50
2018-05-01T16:54:15.574Z,4.40
2018-05-01T16:56:43.079Z,3.00
2018-05-01T16:59:10.578Z,3.17
2018-05-01T17:01:38.191Z,3.07
2018-05-01T17:04:06.450Z,3.00
2018-05-01T17:06:34.874Z,3.60
2018-05-01T17:09:02.399Z,2.73
2018-05-01T17:11:30.667Z,3.20
2018-05-01T17:13:59.057Z,2.97
2018-05-01T17:16:26.543Z,3.83
2018-05-01T17:18:54.026Z,2.90
2018-05-01T17:21:21.529Z,4.10
2018-05-01T17:23:49.027Z,3.10
2018-05-01T17:26:16.546Z,3.93
2018-05-01T17:28:44.034Z,3.43
2018-05-01T17:31:11.659Z,3.53
2018-05-01T17:33:39.153Z,2.90
2018-05-01T17:36:06.643Z,2.80
2018-05-01T17:38:34.764Z,3.33
2018-05-01T17:41:02.251Z,3.03
2018-05-01T17:43:29.748Z,3.10
2018-05-01T17:45:57.259Z,3.20
2018-05-01T17:48:24.738Z,3.50
2018-05-01T17:50:52.251Z,3.20
2018-05-01T17:53:19.769Z,3.20
2018-05-01T17:55:48.296Z,2.90
2018-05-01T17:58:15.778Z,3.50
2018-05-01T18:00:43.376Z,3.63
2018-05-01T18:03:10.881Z,3.80
2018-05-01T18:05:38.362Z,3.53
2018-05-01T18:08:06.648Z,3.40
2018-05-01T18:10:34.948Z,3.50
2018-05-01T18:13:02.442Z,2.77
2018-05-01T18:15:29.932Z,4.00
2018-05-01T18:17:58.252Z,3.83
2018-05-01T18:20:25.778Z,4.53
2018-05-01T18:22:53.323Z,3.30
2018-05-01T18:25:21.609Z,4.23
2018-05-01T18:27:49.160Z,3.70
2018-05-01T18:30:17.459Z,3.67
2018-05-01T18:32:45.001Z,3.50
2018-05-01T18:35:12.559Z,3.10
2018-05-01T18:37:40.051Z,3.70
2018-05-01T18:40:07.680Z,3.10
2018-05-01T18:42:35.227Z,3.33
2018-05-01T18:45:02.730Z,3.60
2018-05-01T18:47:30.244Z,3.20
2018-05-01T18:49:57.745Z,2.80
2018-05-01T18:52:25.251Z,2.87
2018-05-01T18:54:53.515Z,3.23
2018-05-01T18:57:21.791Z,3.73
2018-05-01T18:59:50.065Z,3.27
2018-05-01T19:02:18.330Z,3.53
2018-05-01T19:04:45.866Z,3.10
2018-05-01T19:07:13.368Z,3.40
2018-05-01T19:09:40.918Z,3.40
2018-05-01T19:12:09.183Z,3.17
2018-05-01T19:14:37.449Z,3.13
2018-05-01T19:17:04.930Z,4.30
2018-05-01T19:19:32.440Z,3.47
2018-05-01T19:22:00.040Z,3.40
2018-05-01T19:24:27.551Z,3.00
2018-05-01T19:26:55.164Z,3.50
2018-05-01T19:29:22.672Z,3.57
2018-05-01T19:31:50.265Z,6.13
2018-05-01T19:34:18.609Z,3.20
2018-05-01T19:36:46.068Z,3.30
2018-05-01T19:39:13.609Z,3.30
2018-05-01T19:41:41.120Z,4.10
2018-05-01T19:44:08.612Z,3.90
2018-05-01T19:46:36.132Z,2.93
2018-05-01T19:49:03.630Z,3.83
2018-05-01T19:51:31.158Z,3.93
2018-05-01T19:53:58.668Z,4.07
2018-05-01T19:56:26.171Z,4.00
2018-05-01T19:58:53.677Z,4.20
2018-05-01T20:01:21.236Z,4.20
2018-05-01T20:03:48.716Z,3.30
2018-05-01T20:06:17.004Z,2.97
2018-05-01T20:08:44.553Z,3.30
2018-05-01T20:11:12.042Z,2.97
2018-05-01T20:13:39.551Z,3.87
2018-05-01T20:16:07.798Z,3.67
2018-05-01T20:18:35.306Z,3.57
2018-05-01T20:21:02.828Z,3.13
2018-05-01T20:23:30.338Z,4.87
2018-05-01T20:25:58.118Z,4.50
2018-05-01T20:28:25.757Z,2.80
2018-05-01T20:30:53.386Z,3.40
2018-05-01T20:33:21.668Z,3.07
2018-05-01T20:35:49.159Z,3.00
2018-05-01T20:38:16.633Z,6.53
2018-05-01T20:40:44.144Z,3.07
2018-05-01T20:43:11.692Z,2.80
2018-05-01T20:45:40.071Z,2.50
2018-05-01T20:48:07.571Z,3.03
2018-05-01T20:50:35.061Z,3.30
2018-05-01T20:53:02.648Z,3.07
2018-05-01T20:55:30.160Z,2.67
2018-05-01T20:57:57.662Z,2.50
2018-05-01T21:00:25.166Z,2.93
2018-05-01T21:02:52.772Z,2.93
2018-05-01T21:05:20.266Z,3.13
2018-05-01T21:07:47.752Z,2.53
2018-05-01T21:10:15.258Z,2.53
2018-05-01T21:12:42.793Z,2.57
2018-05-01T21:15:10.304Z,2.47
2018-05-01T21:17:37.808Z,3.50
2018-05-01T21:20:05.299Z,2.57
2018-05-01T21:22:32.807Z,2.60
2018-05-01T21:25:01.054Z,2.70
2018-05-01T21:27:28.546Z,3.13
2018-05-01T21:29:56.841Z,2.30
2018-05-01T21:32:24.352Z,2.33
2018-05-01T21:34:52.612Z,2.60
2018-05-01T21:37:20.107Z,2.67
2018-05-01T21:39:48.380Z,3.27
2018-05-01T21:42:16.637Z,2.53
2018-05-01T21:44:44.229Z,2.27
2018-05-01T21:47:11.720Z,2.13
2018-05-01T21:49:39.232Z,2.67
2018-05-01T21:52:06.820Z,2.80
2018-05-01T21:54:34.314Z,2.40
2018-05-01T21:57:01.798Z,2.57
2018-05-01T21:59:30.171Z,2.17
2018-05-01T22:01:58.545Z,3.23
2018-05-01T22:04:26.822Z,2.27
2018-05-01T22:06:55.066Z,2.63
2018-05-01T22:09:22.566Z,2.47
2018-05-01T22:11:50.072Z,2.20
2018-05-01T22:14:17.555Z,2.27
2018-05-01T22:16:45.826Z,2.30
2018-05-01T22:19:13.301Z,2.67
2018-05-01T22:21:41.556Z,2.50
2018-05-01T22:24:09.053Z,2.53
2018-05-01T22:26:36.543Z,2.50
2018-05-01T22:29:04.046Z,2.47
2018-05-01T22:31:32.294Z,2.33
2018-05-01T22:33:59.870Z,2.50
2018-05-01T22:36:28.160Z,2.60
2018-05-01T22:38:55.658Z,2.90
2018-05-01T22:41:23.146Z,2.30
2018-05-01T22:43:50.641Z,2.20
2018-05-01T22:46:18.123Z,2.30
2018-05-01T22:48:45.729Z,2.47
2018-05-01T22:51:13.975Z,2.10
2018-05-01T22:53:41.459Z,2.17
2018-05-01T22:56:09.725Z,2.53
2018-05-01T22:58:38.039Z,1.73
2018-05-01T23:01:05.579Z,2.27
2018-05-01T23:03:33.066Z,2.50
2018-05-01T23:06:00.609Z,2.20
2018-05-01T23:08:28.117Z,3.60
2018-05-01T23:10:55.710Z,3.20
2018-05-01T23:13:23.282Z,2.90
2018-05-01T23:15:50.774Z,2.40
2018-05-01T23:18:18.270Z,3.27
2018-05-01T23:20:46.538Z,2.57
2018-05-01T23:23:14.799Z,3.13
2018-05-01T23:25:42.299Z,2.63
2018-05-01T23:28:09.810Z,2.37
2018-05-01T23:30:37.397Z,2.13
2018-05-01T23:33:04.946Z,2.70
2018-05-01T23:35:33.228Z,2.73
2018-05-01T23:38:01.503Z,2.43
2018-05-01T23:40:28.995Z,2.30
2018-05-01T23:42:56.482Z,2.50
2018-05-01T23:45:24.061Z,2.30
2018-05-01T23:47:52.306Z,2.80
2018-05-01T23:50:19.849Z,2.93
2018-05-01T23:52:47.340Z,2.60
2018-05-01T23:55:15.590Z,2.73
2018-05-01T23:57:43.088Z,2.63
